Time;durP1;ratioP1;P1;durP2;ratioP2;P2;SDS_P1;SDS_P2;PMS_P1;PMS_P2;Temp;Humidity;BMP_temperature;BMP_pressure;BME280_temperature;BME280_humidity;BME280_pressure;Samples;Min_cycle;Max_cycle;Signal;HPM_P1;HPM_P2
2023/12/26 00:00:56;;;;;;;32.50;21.65;;;;;;;-1.08;100.00;96423.56;5090708;28;20074;-63
2023/12/26 00:03:22;;;;;;;32.38;22.40;;;;;;;-1.11;100.00;96423.63;5086622;28;20048;-63
2023/12/26 00:05:47;;;;;;;38.25;24.30;;;;;;;-1.12;100.00;96419.34;5089486;28;20492;-63
2023/12/26 00:08:13;;;;;;;34.03;22.77;;;;;;;-1.13;100.00;96422.00;5094215;28;20036;-63
2023/12/26 00:10:38;;;;;;;35.67;23.38;;;;;;;-1.13;100.00;96420.25;5089121;28;20476;-63
2023/12/26 00:13:04;;;;;;;41.65;26.40;;;;;;;-1.13;100.00;96427.19;5086785;28;20038;-64
2023/12/26 00:15:29;;;;;;;35.58;22.20;;;;;;;-1.16;100.00;96421.22;5089724;28;20408;-63
2023/12/26 00:17:55;;;;;;;32.75;21.63;;;;;;;-1.17;100.00;96416.94;5085042;28;20398;-63
2023/12/26 00:20:20;;;;;;;36.55;24.95;;;;;;;-1.17;100.00;96416.09;5090807;28;20063;-63
2023/12/26 00:22:45;;;;;;;32.20;21.67;;;;;;;-1.17;100.00;96427.28;5091756;28;20034;-64
2023/12/26 00:25:11;;;;;;;28.15;21.40;;;;;;;-1.13;100.00;96414.25;5085279;28;20052;-63
2023/12/26 00:27:39;;;;;;;29.98;20.48;;;;;;;-1.14;100.00;96415.16;5096187;28;20081;-63
2023/12/26 00:30:06;;;;;;;25.73;18.23;;;;;;;-1.17;100.00;96413.50;5092652;28;20031;-63
2023/12/26 00:32:31;;;;;;;24.95;18.88;;;;;;;-1.19;100.00;96413.56;5099633;28;20038;-63
2023/12/26 00:34:58;;;;;;;25.90;17.48;;;;;;;-1.21;100.00;96412.78;5094414;28;20103;-64
2023/12/26 00:37:23;;;;;;;26.60;18.13;;;;;;;-1.24;100.00;96415.44;5092809;28;20028;-63
2023/12/26 00:39:49;;;;;;;24.80;17.23;;;;;;;-1.23;100.00;96414.56;5098818;28;20020;-62
2023/12/26 00:42:14;;;;;;;25.85;17.67;;;;;;;-1.25;100.00;96413.75;5092850;28;20109;-62
2023/12/26 00:44:40;;;;;;;22.25;15.63;;;;;;;-1.25;100.00;96416.34;5093574;28;20116;-63
2023/12/26 00:47:05;;;;;;;20.65;15.13;;;;;;;-1.24;100.00;96415.44;5092422;28;20081;-63
2023/12/26 00:49:30;;;;;;;19.67;14.48;;;;;;;-1.27;100.00;96418.13;5090425;28;20028;-62
2023/12/26 00:51:56;;;;;;;19.90;13.88;;;;;;;-1.28;100.00;96416.44;5092035;28;20055;-62
2023/12/26 00:54:21;;;;;;;18.90;13.70;;;;;;;-1.31;100.00;96409.66;5088267;28;20503;-62
2023/12/26 00:56:46;;;;;;;17.63;13.32;;;;;;;-1.33;100.00;96411.47;5095274;28;20071;-62
2023/12/26 00:59:12;;;;;;;20.65;14.82;;;;;;;-1.35;100.00;96413.22;5093127;28;20021;-62
2023/12/26 01:01:37;;;;;;;18.33;12.57;;;;;;;-1.35;100.00;96407.22;5092376;28;20036;-62
2023/12/26 01:04:03;;;;;;;18.60;13.82;;;;;;;-1.38;100.00;96408.16;5095336;28;20036;-62
2023/12/26 01:06:28;;;;;;;15.02;12.38;;;;;;;-1.38;100.00;96404.75;5092261;28;20039;-62
2023/12/26 01:08:54;;;;;;;17.77;14.77;;;;;;;-1.41;100.00;96407.44;5092344;28;20036;-63
2023/12/26 01:11:19;;;;;;;19.95;14.43;;;;;;;-1.42;100.00;96403.19;5094803;28;20035;-62
2023/12/26 01:13:44;;;;;;;15.07;10.73;;;;;;;-1.41;100.00;96399.69;5097442;28;20464;-62
2023/12/26 01:16:10;;;;;;;15.25;12.65;;;;;;;-1.40;100.00;96394.47;5094757;28;20024;-63
2023/12/26 01:18:35;;;;;;;17.65;11.77;;;;;;;-1.43;100.00;96394.56;5097179;28;20544;-62
2023/12/26 01:21:00;;;;;;;13.38;9.43;;;;;;;-1.45;100.00;96397.19;5094763;28;20114;-62
2023/12/26 01:23:26;;;;;;;12.43;9.65;;;;;;;-1.49;100.00;96395.59;5097147;28;20030;-62
2023/12/26 01:25:52;;;;;;;11.00;9.77;;;;;;;-1.47;100.00;96398.97;5091284;28;20050;-62
2023/12/26 01:28:17;;;;;;;12.35;9.55;;;;;;;-1.48;100.00;96391.28;5092249;28;20039;-62
2023/12/26 01:30:42;;;;;;;8.55;6.97;;;;;;;-1.50;100.00;96398.25;5093338;28;20062;-62
2023/12/26 01:33:08;;;;;;;9.40;8.40;;;;;;;-1.50;100.00;96400.84;5088583;28;20048;-62
2023/12/26 01:35:33;;;;;;;9.38;7.40;;;;;;;-1.50;100.00;96398.25;5088617;28;20031;-62
2023/12/26 01:37:59;;;;;;;11.95;8.30;;;;;;;-1.51;100.00;96407.72;5091487;28;20048;-62
2023/12/26 01:40:24;;;;;;;10.30;7.03;;;;;;;-1.46;100.00;96402.41;5089608;28;20027;-62
2023/12/26 01:42:50;;;;;;;7.65;6.95;;;;;;;-1.47;100.00;96408.47;5090402;28;20042;-62
2023/12/26 01:45:16;;;;;;;8.18;7.35;;;;;;;-1.50;100.00;96404.25;5092452;28;20063;-62
2023/12/26 01:47:45;;;;;;;8.27;7.40;;;;;;;-1.50;100.00;96413.75;5086948;28;20028;-62
2023/12/26 01:50:13;;;;;;;10.65;7.82;;;;;;;-1.55;100.00;96411.31;5088986;28;20036;-62
2023/12/26 01:52:39;;;;;;;8.27;7.20;;;;;;;-1.54;100.00;96413.00;5091944;28;20421;-63
2023/12/26 01:55:07;;;;;;;8.85;7.28;;;;;;;-1.53;100.00;96411.28;5088070;28;20090;-62
2023/12/26 01:57:34;;;;;;;8.05;7.25;;;;;;;-1.54;100.00;96412.16;5089023;28;20032;-62
2023/12/26 02:00:01;;;;;;;7.93;6.47;;;;;;;-1.54;100.00;96417.34;5092072;28;20388;-62
2023/12/26 02:02:28;;;;;;;6.75;6.05;;;;;;;-1.61;100.00;96411.53;5088257;28;20059;-62
2023/12/26 02:04:54;;;;;;;6.35;5.75;;;;;;;-1.60;100.00;96429.53;5088728;28;20103;-63
2023/12/26 02:07:19;;;;;;;6.55;5.95;;;;;;;-1.62;100.00;96423.56;5083264;28;20108;-63
2023/12/26 02:09:44;;;;;;;6.90;6.20;;;;;;;-1.60;100.00;96426.94;5095980;28;20030;-62
2023/12/26 02:12:10;;;;;;;6.45;5.85;;;;;;;-1.64;100.00;96422.78;5087602;28;20438;-62
2023/12/26 02:14:35;;;;;;;6.93;6.30;;;;;;;-1.67;100.00;96425.47;5092239;28;20020;-63
2023/12/26 02:17:04;;;;;;;7.35;6.15;;;;;;;-1.66;100.00;96418.53;5089932;28;20408;-62
2023/12/26 02:19:30;;;;;;;6.60;5.82;;;;;;;-1.66;100.00;96424.56;5024477;28;1975811;-62
2023/12/26 02:21:55;;;;;;;6.00;5.38;;;;;;;-1.63;100.00;96418.47;5091544;28;20063;-65
2023/12/26 02:24:20;;;;;;;6.65;5.50;;;;;;;-1.63;100.00;96421.88;5091798;28;20033;-62
2023/12/26 02:26:49;;;;;;;6.10;5.50;;;;;;;-1.63;100.00;96421.06;5093770;28;20093;-62
2023/12/26 02:29:14;;;;;;;5.53;4.88;;;;;;;-1.61;100.00;96417.50;5089652;28;20497;-62
2023/12/26 02:31:41;;;;;;;5.63;5.13;;;;;;;-1.63;100.00;96419.31;5093717;28;20051;-62
2023/12/26 02:34:07;;;;;;;5.25;4.85;;;;;;;-1.64;100.00;96427.13;5087057;28;20107;-62
2023/12/26 02:36:33;;;;;;;5.88;5.38;;;;;;;-1.69;100.00;96423.81;5091563;28;20055;-63
2023/12/26 02:38:59;;;;;;;8.25;5.20;;;;;;;-1.67;100.00;96422.88;5095800;28;20023;-63
2023/12/26 02:41:25;;;;;;;5.88;4.63;;;;;;;-1.70;100.00;96416.97;5087150;28;20509;-62
2023/12/26 02:43:50;;;;;;;5.50;4.93;;;;;;;-1.70;100.00;96416.97;5092026;28;20042;-62
2023/12/26 02:46:16;;;;;;;5.45;4.93;;;;;;;-1.74;100.00;96423.97;5096946;28;20381;-62
2023/12/26 02:48:41;;;;;;;5.15;4.65;;;;;;;-1.83;100.00;96419.94;5091551;28;20028;-62
2023/12/26 02:51:08;;;;;;;7.18;5.28;;;;;;;-1.86;100.00;96417.47;5088025;28;20081;-62
2023/12/26 02:53:33;;;;;;;10.20;6.97;;;;;;;-1.84;100.00;96409.66;5093616;28;20073;-62
2023/12/26 02:55:58;;;;;;;9.60;7.30;;;;;;;-1.84;100.00;96410.50;5090347;28;20036;-62
2023/12/26 02:58:24;;;;;;;9.98;7.10;;;;;;;-1.85;100.00;96411.41;5086514;28;20019;-62
2023/12/26 03:00:49;;;;;;;9.45;6.47;;;;;;;-1.81;100.00;96413.00;5087020;28;20075;-62
2023/12/26 03:03:16;;;;;;;12.23;7.15;;;;;;;-1.81;100.00;96415.56;5094388;28;20012;-62
2023/12/26 03:05:41;;;;;;;11.65;7.13;;;;;;;-1.83;100.00;96401.88;5087565;28;20030;-62
2023/12/26 03:08:06;;;;;;;13.00;7.90;;;;;;;-1.83;100.00;96399.28;5087896;28;20020;-62
2023/12/26 03:10:32;;;;;;;9.23;6.50;;;;;;;-1.82;100.00;96406.16;5085868;28;20074;-62
2023/12/26 03:12:57;;;;;;;8.50;6.38;;;;;;;-1.86;100.00;96401.97;5091063;28;20024;-62
2023/12/26 03:15:23;;;;;;;6.88;5.70;;;;;;;-1.88;100.00;96398.56;5091902;28;20466;-62
2023/12/26 03:17:48;;;;;;;8.07;5.80;;;;;;;-1.91;100.00;96403.84;5090953;28;20421;-62
2023/12/26 03:20:14;;;;;;;7.22;5.97;;;;;;;-1.93;100.00;96401.31;5087858;28;20036;-62
2023/12/26 03:22:40;;;;;;;11.20;6.30;;;;;;;-1.95;100.00;96400.53;5092321;28;20055;-62
2023/12/26 03:25:06;;;;;;;8.85;6.65;;;;;;;-1.94;100.00;96393.59;5092511;28;20050;-63
2023/12/26 03:27:32;;;;;;;6.25;5.65;;;;;;;-1.93;100.00;96400.47;5089786;28;20047;-62
2023/12/26 03:29:57;;;;;;;6.15;4.80;;;;;;;-1.93;100.00;96398.75;5086151;28;20020;-62
2023/12/26 03:32:22;;;;;;;11.60;5.97;;;;;;;-1.93;100.00;96395.28;5093502;28;20024;-62
2023/12/26 03:34:48;;;;;;;6.32;5.65;;;;;;;-1.95;100.00;96392.78;5081997;28;20056;-62
2023/12/26 03:37:13;;;;;;;6.80;5.05;;;;;;;-1.96;100.00;96391.09;5091189;28;20188;-62
2023/12/26 03:39:41;;;;;;;5.95;5.35;;;;;;;-1.96;100.00;96392.81;5093094;28;20036;-62
2023/12/26 03:42:06;;;;;;;6.70;5.70;;;;;;;-2.00;100.00;96398.97;5090756;28;20051;-62
2023/12/26 03:44:31;;;;;;;6.85;5.40;;;;;;;-2.00;100.00;96394.63;5086877;28;20035;-62
2023/12/26 03:46:57;;;;;;;5.65;4.90;;;;;;;-2.00;100.00;96392.06;5093972;28;20407;-62
2023/12/26 03:49:22;;;;;;;6.85;4.80;;;;;;;-2.02;100.00;96393.84;5090429;28;20116;-62
2023/12/26 03:51:47;;;;;;;5.90;5.07;;;;;;;-2.03;100.00;96405.91;5094166;28;20059;-62
2023/12/26 03:54:14;;;;;;;6.63;5.53;;;;;;;-2.04;100.00;96399.06;5089754;28;20024;-62
2023/12/26 03:56:40;;;;;;;5.13;4.63;;;;;;;-2.04;100.00;96409.41;5090913;28;20032;-62
2023/12/26 03:59:06;;;;;;;4.95;4.50;;;;;;;-2.05;100.00;96405.13;5092299;28;20026;-62
2023/12/26 04:01:31;;;;;;;6.07;4.80;;;;;;;-2.03;100.00;96397.31;5084383;28;20396;-62
2023/12/26 04:03:57;;;;;;;15.35;8.45;;;;;;;-2.03;100.00;96411.09;5093241;28;20050;-62
2023/12/26 04:06:22;;;;;;;18.83;9.07;;;;;;;-2.04;100.00;96411.13;5094717;28;20020;-62
2023/12/26 04:08:48;;;;;;;14.95;7.90;;;;;;;-2.02;100.00;96417.06;5094080;28;20039;-62
2023/12/26 04:11:13;;;;;;;10.95;7.32;;;;;;;-2.03;100.00;96417.97;5093051;28;20028;-62
2023/12/26 04:13:39;;;;;;;8.02;5.63;;;;;;;-2.06;100.00;96418.06;5089273;28;20024;-62
2023/12/26 04:16:05;;;;;;;8.52;6.05;;;;;;;-2.03;100.00;96420.53;5085824;28;20036;-62
2023/12/26 04:18:30;;;;;;;8.43;6.22;;;;;;;-2.06;100.00;96421.50;5087278;28;20055;-62
2023/12/26 04:20:56;;;;;;;14.07;7.38;;;;;;;-2.07;100.00;96419.81;5094856;28;20059;-62
2023/12/26 04:23:21;;;;;;;13.15;8.50;;;;;;;-2.10;100.00;96419.06;5087657;28;20078;-62
2023/12/26 04:25:47;;;;;;;18.35;9.82;;;;;;;-2.13;100.00;96419.97;5091496;28;20043;-62
2023/12/26 04:28:12;;;;;;;16.48;10.40;;;;;;;-2.13;100.00;96421.72;5090903;28;20032;-62
2023/12/26 04:30:37;;;;;;;16.80;10.05;;;;;;;-2.15;100.00;96421.75;5092826;28;20042;-62
2023/12/26 04:33:05;;;;;;;21.95;11.35;;;;;;;-2.16;100.00;96420.94;5090571;28;20039;-62
2023/12/26 04:35:31;;;;;;;18.10;9.18;;;;;;;-2.19;100.00;96417.59;5090592;28;20065;-63
2023/12/26 04:37:56;;;;;;;21.30;12.05;;;;;;;-2.19;100.00;96415.00;5088476;28;20059;-62
2023/12/26 04:40:21;;;;;;;22.23;12.27;;;;;;;-2.19;100.00;96415.00;5085860;28;20035;-62
2023/12/26 04:42:47;;;;;;;24.70;11.90;;;;;;;-2.20;100.00;96409.03;5087081;28;20444;-62
2023/12/26 04:45:12;;;;;;;22.30;13.07;;;;;;;-2.21;100.00;96409.06;5085427;28;20029;-61
2023/12/26 04:47:37;;;;;;;21.90;12.63;;;;;;;-2.22;100.00;96404.78;5084441;28;20032;-62
2023/12/26 04:50:04;;;;;;;23.95;14.98;;;;;;;-2.24;100.00;96396.25;5090184;28;20024;-62
2023/12/26 04:52:29;;;;;;;18.60;12.32;;;;;;;-2.24;100.00;96401.41;5083460;28;20036;-62
2023/12/26 04:54:54;;;;;;;21.17;11.65;;;;;;;-2.24;100.00;96399.66;5069762;28;20484;-62
2023/12/26 04:57:20;;;;;;;24.77;12.02;;;;;;;-2.23;100.00;96392.78;5088530;28;20052;-62
2023/12/26 04:59:45;;;;;;;22.55;12.43;;;;;;;-2.27;100.00;96398.94;5085585;28;20404;-62
2023/12/26 05:02:11;;;;;;;14.60;10.77;;;;;;;-2.29;100.00;96398.97;5092725;28;20024;-62
2023/12/26 05:04:38;;;;;;;15.77;9.90;;;;;;;-2.29;100.00;96404.13;5088494;28;20422;-63
2023/12/26 05:07:03;;;;;;;15.35;10.35;;;;;;;-2.27;100.00;96414.41;5095419;28;20054;-62
2023/12/26 05:09:28;;;;;;;17.20;11.40;;;;;;;-2.24;100.00;96427.22;5085700;28;20051;-62
2023/12/26 05:11:54;;;;;;;18.08;10.38;;;;;;;-2.19;100.00;96422.75;5086849;28;20035;-62
2023/12/26 05:14:20;;;;;;;11.07;8.35;;;;;;;-2.19;100.00;96426.19;5089701;28;20394;-62
2023/12/26 05:16:48;;;;;;;12.95;8.77;;;;;;;-2.10;100.00;96424.22;5090759;28;20016;-62
2023/12/26 05:19:14;;;;;;;15.20;9.55;;;;;;;-2.09;100.00;96429.34;5088731;28;20079;-62
2023/12/26 05:21:39;;;;;;;13.25;8.73;;;;;;;-2.13;100.00;96424.31;5090182;28;20544;-63
2023/12/26 05:24:05;;;;;;;9.90;7.95;;;;;;;-2.16;100.00;96430.41;5089186;28;20111;-62
2023/12/26 05:26:40;;;;;;;13.55;8.73;;;;;;;-2.17;100.00;96436.44;5088089;28;20024;-63
2023/12/26 05:29:07;;;;;;;9.32;8.13;;;;;;;-2.24;100.00;96437.53;5094239;28;20047;-62
2023/12/26 05:31:32;;;;;;;10.15;7.78;;;;;;;-2.27;100.00;96441.03;5091338;28;20085;-62
2023/12/26 05:33:58;;;;;;;13.15;8.77;;;;;;;-2.19;100.00;96445.97;5092591;28;20032;-62
2023/12/26 05:36:24;;;;;;;10.38;7.90;;;;;;;-2.17;100.00;96439.03;5084964;28;20039;-64
2023/12/26 05:38:49;;;;;;;11.35;7.88;;;;;;;-2.19;100.00;96448.56;5082388;28;20769;-62
2023/12/26 05:41:14;;;;;;;19.58;9.70;;;;;;;-2.19;100.00;96456.28;5089853;28;20052;-62
2023/12/26 05:43:40;;;;;;;19.95;10.73;;;;;;;-2.23;100.00;96447.78;5089352;28;20557;-63
2023/12/26 05:46:05;;;;;;;17.02;10.35;;;;;;;-2.24;100.00;96450.44;5089900;28;20020;-62
2023/12/26 05:48:31;;;;;;;18.80;10.10;;;;;;;-2.27;100.00;96450.53;5085054;28;20116;-62
2023/12/26 05:50:56;;;;;;;20.55;11.43;;;;;;;-2.29;100.00;96453.13;5094691;28;20103;-62
2023/12/26 05:53:23;;;;;;;19.00;10.70;;;;;;;-2.28;100.00;96461.72;5095916;28;20046;-62
2023/12/26 05:55:48;;;;;;;16.80;10.70;;;;;;;-2.31;100.00;96463.50;5090530;28;20479;-62
2023/12/26 05:58:13;;;;;;;17.15;10.80;;;;;;;-2.33;100.00;96460.09;5090881;28;20058;-62
2023/12/26 06:00:39;;;;;;;18.42;10.57;;;;;;;-2.32;100.00;96463.53;5088239;28;20896;-62
2023/12/26 06:03:04;;;;;;;12.45;8.75;;;;;;;-2.30;100.00;96464.34;5085964;28;20027;-62
2023/12/26 06:05:29;;;;;;;15.52;8.20;;;;;;;-2.31;100.00;96473.84;5092625;28;20020;-62
2023/12/26 06:07:55;;;;;;;9.32;7.57;;;;;;;-2.28;100.00;96475.47;5090494;28;20021;-62
2023/12/26 06:10:20;;;;;;;17.02;10.60;;;;;;;-2.21;100.00;96483.88;5088640;28;20047;-62
2023/12/26 06:12:45;;;;;;;18.00;10.68;;;;;;;-2.15;100.00;96483.69;5088116;28;20055;-62
2023/12/26 06:15:11;;;;;;;13.68;9.25;;;;;;;-2.17;100.00;96496.66;5090867;28;20541;-62
2023/12/26 06:17:36;;;;;;;15.35;8.60;;;;;;;-2.15;100.00;96494.00;5089923;28;20157;-62
2023/12/26 06:20:03;;;;;;;12.00;8.40;;;;;;;-2.16;100.00;96506.06;5091229;28;20032;-65
2023/12/26 06:22:28;;;;;;;11.95;8.27;;;;;;;-2.18;100.00;96497.53;5091690;28;20031;-62
2023/12/26 06:24:53;;;;;;;14.73;8.23;;;;;;;-2.20;100.00;96499.31;5090272;28;20031;-64
2023/12/26 06:27:19;;;;;;;10.65;8.20;;;;;;;-2.24;100.00;96505.44;5091632;28;20484;-62
2023/12/26 06:29:44;;;;;;;11.05;8.23;;;;;;;-2.27;100.00;96515.00;5083997;28;20035;-62
2023/12/26 06:32:09;;;;;;;9.88;8.45;;;;;;;-2.30;100.00;96503.03;5084176;28;20135;-62
2023/12/26 06:34:35;;;;;;;15.52;10.80;;;;;;;-2.27;100.00;96509.84;5090172;28;20024;-62
2023/12/26 06:37:00;;;;;;;14.25;9.65;;;;;;;-2.26;100.00;96502.06;5092362;28;20515;-62
2023/12/26 06:39:26;;;;;;;14.88;9.77;;;;;;;-2.30;100.00;96503.03;5086293;28;20021;-62
2023/12/26 06:41:51;;;;;;;13.45;10.07;;;;;;;-2.32;100.00;96497.06;5092714;28;20048;-63
2023/12/26 06:44:16;;;;;;;23.38;14.52;;;;;;;-2.28;100.00;96505.59;5094928;28;20028;-64
2023/12/26 06:46:42;;;;;;;19.05;13.73;;;;;;;-2.19;100.00;96502.72;5086793;28;20170;-62
2023/12/26 06:49:09;;;;;;;18.55;11.77;;;;;;;-2.21;100.00;96515.69;5085968;28;20233;-62
2023/12/26 06:51:39;;;;;;;21.10;14.95;;;;;;;-2.21;100.00;96514.84;5093600;28;20436;-65
2023/12/26 06:54:04;;;;;;;24.55;15.95;;;;;;;-2.24;100.00;96510.59;5088445;28;20032;-62
2023/12/26 06:56:30;;;;;;;18.27;12.40;;;;;;;-2.23;100.00;96514.88;5092034;28;20377;-62
2023/12/26 06:58:55;;;;;;;17.65;11.68;;;;;;;-2.22;100.00;96518.31;5088164;28;20012;-63
2023/12/26 07:01:21;;;;;;;16.80;11.32;;;;;;;-2.24;100.00;96514.91;5086244;28;20038;-63
2023/12/26 07:03:46;;;;;;;23.40;14.40;;;;;;;-2.26;100.00;96521.88;5086346;28;20176;-63
2023/12/26 07:06:12;;;;;;;22.02;12.43;;;;;;;-2.24;100.00;96531.22;5089355;28;20023;-62
2023/12/26 07:08:37;;;;;;;23.38;14.57;;;;;;;-2.27;100.00;96543.38;5091675;28;20056;-62
2023/12/26 07:11:02;;;;;;;32.05;18.15;;;;;;;-2.31;100.00;96545.19;5091737;28;20069;-62
2023/12/26 07:13:28;;;;;;;32.67;18.13;;;;;;;-2.32;100.00;96554.69;5083937;28;20031;-63
2023/12/26 07:15:53;;;;;;;35.50;19.75;;;;;;;-2.33;100.00;96558.13;5090299;28;20153;-65
2023/12/26 07:18:19;;;;;;;35.88;19.92;;;;;;;-2.31;100.00;96558.97;5087378;28;20059;-62
2023/12/26 07:20:44;;;;;;;34.53;19.58;;;;;;;-2.27;100.00;96569.19;5082227;28;20714;-63
2023/12/26 07:23:10;;;;;;;43.90;25.00;;;;;;;-2.29;100.00;96576.13;5091723;28;20054;-62
2023/12/26 07:25:37;;;;;;;58.72;30.48;;;;;;;-2.28;100.00;96585.56;5094027;28;20028;-62
2023/12/26 07:28:03;;;;;;;59.35;31.90;;;;;;;-2.27;100.00;96582.09;5093134;28;20024;-63
2023/12/26 07:30:28;;;;;;;73.45;33.13;;;;;;;-2.21;100.00;96594.81;5093661;28;20031;-65
2023/12/26 07:32:54;;;;;;;67.03;31.60;;;;;;;-2.16;100.00;96588.66;5090786;28;20480;-64
2023/12/26 07:35:19;;;;;;;59.97;30.77;;;;;;;-2.15;100.00;96592.06;5089986;28;20016;-63
2023/12/26 07:37:45;;;;;;;58.92;30.13;;;;;;;-2.18;100.00;96597.31;5090025;28;20020;-62
2023/12/26 07:40:11;;;;;;;56.38;30.73;;;;;;;-2.20;100.00;96601.66;5090030;28;20087;-63
2023/12/26 07:42:36;;;;;;;23.15;16.98;;;;;;;-2.06;100.00;96593.53;5087364;28;20031;-63
2023/12/26 07:45:02;;;;;;;26.67;18.13;;;;;;;-1.91;100.00;96600.00;5091384;28;20020;-65
2023/12/26 07:47:27;;;;;;;22.33;16.80;;;;;;;-1.98;100.00;96593.34;5086397;28;20020;-64
2023/12/26 07:49:53;;;;;;;24.65;15.43;;;;;;;-2.00;100.00;96600.28;5091058;28;20052;-63
2023/12/26 07:52:18;;;;;;;20.10;13.88;;;;;;;-2.00;100.00;96595.94;5085802;28;20478;-63
2023/12/26 07:54:43;;;;;;;21.77;14.23;;;;;;;-1.95;100.00;96599.28;5091312;28;20028;-64
2023/12/26 07:57:09;;;;;;;22.75;16.15;;;;;;;-1.92;100.00;96606.91;5091764;28;20023;-64
2023/12/26 07:59:34;;;;;;;24.05;18.00;;;;;;;-1.93;100.00;96596.63;5091637;28;20664;-63
2023/12/26 08:01:59;;;;;;;21.02;17.40;;;;;;;-1.94;100.00;96589.78;5085434;28;20016;-64
2023/12/26 08:04:25;;;;;;;21.35;16.08;;;;;;;-1.94;100.00;96582.03;5092988;28;20027;-63
2023/12/26 08:06:50;;;;;;;19.48;15.88;;;;;;;-1.94;100.00;96589.78;5098456;28;20023;-63
2023/12/26 08:09:16;;;;;;;25.73;20.42;;;;;;;-1.91;100.00;96587.97;5098212;28;20488;-63
2023/12/26 08:11:41;;;;;;;25.55;19.02;;;;;;;-1.69;100.00;96591.66;5089461;28;20020;-64
2023/12/26 08:14:06;;;;;;;19.10;16.02;;;;;;;-1.46;100.00;96590.97;5088074;28;20020;-63
2023/12/26 08:16:32;;;;;;;26.27;21.48;;;;;;;-1.46;100.00;96588.41;5093768;28;20051;-64
2023/12/26 08:18:58;;;;;;;31.38;24.77;;;;;;;-1.51;100.00;96593.69;5092581;28;20047;-63
2023/12/26 08:21:24;;;;;;;31.27;26.45;;;;;;;-1.56;100.00;96586.97;5096211;28;20027;-63
2023/12/26 08:23:50;;;;;;;54.40;39.88;;;;;;;-1.56;100.00;96587.81;5093536;28;20481;-64
2023/12/26 08:26:15;;;;;;;57.20;39.08;;;;;;;-1.45;100.00;96592.69;5086397;28;20027;-63
2023/12/26 08:28:41;;;;;;;50.65;36.05;;;;;;;-1.46;100.00;96590.97;5092313;28;20479;-64
2023/12/26 08:31:07;;;;;;;47.60;35.92;;;;;;;-1.50;100.00;96594.56;5091158;28;20047;-63
2023/12/26 08:33:35;;;;;;;47.50;34.90;;;;;;;-1.56;100.00;96589.56;5091831;28;20498;-63
2023/12/26 08:36:01;;;;;;;39.75;30.27;;;;;;;-1.63;100.00;96601.81;5092404;28;20013;-63
2023/12/26 08:38:27;;;;;;;47.85;34.05;;;;;;;-1.63;100.00;96604.41;5095764;28;20044;-64
2023/12/26 08:40:53;;;;;;;44.08;32.53;;;;;;;-1.63;100.00;96607.00;5088325;28;20049;-63
2023/12/26 08:43:18;;;;;;;49.10;31.33;;;;;;;-1.65;100.00;96613.94;5094124;28;20032;-63
2023/12/26 08:45:44;;;;;;;41.95;33.20;;;;;;;-1.62;100.00;96619.00;5092050;28;20107;-64
2023/12/26 08:48:09;;;;;;;39.05;30.67;;;;;;;-1.63;100.00;96617.31;5100724;28;20119;-63
2023/12/26 08:50:35;;;;;;;43.50;34.25;;;;;;;-1.63;100.00;96627.66;5091450;28;20100;-63
2023/12/26 08:53:00;;;;;;;32.15;26.38;;;;;;;-1.59;100.00;96632.66;5095623;28;20058;-63
2023/12/26 08:55:26;;;;;;;36.45;30.00;;;;;;;-1.47;100.00;96631.44;5096235;28;20111;-63
2023/12/26 08:57:51;;;;;;;32.53;27.15;;;;;;;-1.43;100.00;96637.38;5095672;28;20150;-63
2023/12/26 09:00:17;;;;;;;26.98;24.13;;;;;;;-1.41;100.00;96642.53;5091174;28;20020;-64
2023/12/26 09:02:43;;;;;;;22.50;19.08;;;;;;;-1.38;100.00;96650.19;5089217;28;20023;-63
2023/12/26 09:05:11;;;;;;;17.20;14.73;;;;;;;-1.36;100.00;96656.97;5090798;28;20016;-63
2023/12/26 09:07:37;;;;;;;18.77;15.23;;;;;;;-1.27;100.00;96649.88;5094897;28;20480;-63
2023/12/26 09:10:03;;;;;;;16.83;14.95;;;;;;;-1.30;100.00;96658.53;5094662;28;20032;-64
2023/12/26 09:12:29;;;;;;;18.05;15.85;;;;;;;-1.29;100.00;96652.47;5095840;28;20047;-63
2023/12/26 09:14:54;;;;;;;20.05;15.00;;;;;;;-1.30;100.00;96654.22;5091028;28;20031;-63
2023/12/26 09:17:19;;;;;;;19.02;15.15;;;;;;;-1.38;100.00;96643.25;5091416;28;20032;-63
2023/12/26 09:19:45;;;;;;;24.15;15.77;;;;;;;-1.37;100.00;96646.69;5094892;28;20044;-63
2023/12/26 09:22:10;;;;;;;22.73;15.82;;;;;;;-1.38;100.00;96650.19;5095910;28;20055;-63
2023/12/26 09:24:36;;;;;;;17.90;15.00;;;;;;;-1.41;100.00;96656.28;5093827;28;20042;-63
2023/12/26 09:27:02;;;;;;;18.38;15.10;;;;;;;-1.40;100.00;96654.53;5092448;28;20020;-64
2023/12/26 09:29:27;;;;;;;18.30;16.20;;;;;;;-1.38;100.00;96670.84;5095342;28;20078;-64
2023/12/26 09:31:53;;;;;;;21.48;17.92;;;;;;;-1.38;100.00;96670.84;5087902;28;20024;-64
2023/12/26 09:34:18;;;;;;;19.70;16.40;;;;;;;-1.24;100.00;96673.84;5090256;28;20477;-64
2023/12/26 09:36:44;;;;;;;20.98;18.80;;;;;;;-1.10;100.00;96673.47;5090722;28;20024;-64
2023/12/26 09:39:09;;;;;;;20.15;15.32;;;;;;;-0.74;100.00;96672.38;5089058;28;20069;-66
2023/12/26 09:41:34;;;;;;;14.15;11.95;;;;;;;-0.37;100.00;96666.00;5097975;28;20027;-63
2023/12/26 09:44:00;;;;;;;18.00;12.52;;;;;;;0.13;100.00;96669.53;5095648;28;20026;-64
2023/12/26 09:46:26;;;;;;;22.83;19.25;;;;;;;0.67;100.00;96664.16;5090203;28;20031;-64
2023/12/26 09:48:51;;;;;;;23.13;20.45;;;;;;;1.21;100.00;96669.88;5101730;28;20047;-63
2023/12/26 09:51:26;;;;;;;30.20;21.08;;;;;;;1.72;100.00;96669.59;5094691;28;20476;-62
2023/12/26 09:53:58;;;;;;;21.58;18.70;;;;;;;2.15;100.00;96669.53;5094134;28;20762;-62
2023/12/26 09:56:25;;;;;;;18.10;14.80;;;;;;;2.50;100.00;96667.13;5086613;28;20050;-63
2023/12/26 09:58:53;;;;;;;20.52;14.30;;;;;;;2.81;100.00;96670.97;5093138;28;20028;-63
2023/12/26 10:01:20;;;;;;;19.38;13.77;;;;;;;3.10;100.00;96676.59;5091954;28;20031;-63
2023/12/26 10:03:46;;;;;;;35.83;21.70;;;;;;;3.28;100.00;96661.03;5096622;28;20107;-63
2023/12/26 10:06:13;;;;;;;26.23;17.45;;;;;;;3.49;100.00;96646.13;5095626;28;20047;-63
2023/12/26 10:08:40;;;;;;;13.68;9.60;;;;;;;3.69;100.00;96632.13;5090646;28;20028;-64
2023/12/26 10:11:06;;;;;;;9.18;8.27;;;;;;;3.90;100.00;96634.59;5095634;28;20042;-64
2023/12/26 10:13:53;;;;;;;6.10;5.50;;;;;;;4.22;100.00;96637.31;5098276;28;20024;-64
2023/12/26 10:16:19;;;;;;;6.45;5.10;;;;;;;4.51;100.00;96634.09;5096368;28;20556;-64
2023/12/26 10:18:46;;;;;;;5.53;4.72;;;;;;;4.77;100.00;96631.84;5093125;28;20111;-64
2023/12/26 10:21:12;;;;;;;6.57;4.70;;;;;;;5.01;100.00;96624.47;5091580;28;20023;-65
2023/12/26 10:23:38;;;;;;;8.15;6.55;;;;;;;5.24;100.00;96622.34;5094040;28;20012;-65
2023/12/26 10:26:03;;;;;;;10.07;8.88;;;;;;;5.46;100.00;96624.56;5093348;28;20068;-65
2023/12/26 10:28:32;;;;;;;11.23;9.57;;;;;;;5.62;100.00;96616.69;5090145;28;20020;-65
2023/12/26 10:30:58;;;;;;;9.23;8.32;;;;;;;5.74;100.00;96617.75;5087761;28;20024;-65
2023/12/26 10:33:26;;;;;;;11.00;6.90;;;;;;;5.82;100.00;96605.09;5084428;28;20031;-65
2023/12/26 10:36:11;;;;;;;7.65;5.97;;;;;;;5.83;100.00;96606.78;5088880;28;20091;-64
2023/12/26 10:38:38;;;;;;;7.10;6.38;;;;;;;6.05;100.00;96605.53;5092389;28;20507;-65
2023/12/26 10:41:10;;;;;;;10.60;7.28;;;;;;;6.45;100.00;96599.66;5091400;28;20028;-65
2023/12/26 10:43:43;;;;;;;6.15;4.72;;;;;;;6.59;100.00;96589.22;5084682;28;20047;-65
2023/12/26 10:46:08;;;;;;;7.28;6.57;;;;;;;6.58;100.00;96569.22;5094961;28;20024;-66
2023/12/26 10:48:35;;;;;;;5.40;4.47;;;;;;;6.43;100.00;96559.69;5094988;28;20035;-65
2023/12/26 10:51:01;;;;;;;4.38;3.97;;;;;;;6.41;100.00;96554.56;5090945;28;20023;-65
2023/12/26 10:53:43;;;;;;;5.10;4.60;;;;;;;6.53;100.00;96547.72;5096233;28;20119;-66
2023/12/26 10:56:11;;;;;;;6.32;4.15;;;;;;;6.47;100.00;96529.78;5083780;28;20576;-65
2023/12/26 10:58:37;;;;;;;5.07;4.38;;;;;;;6.42;100.00;96519.63;5091522;28;20495;-64
2023/12/26 11:01:16;;;;;;;18.92;13.88;;;;;;;6.47;100.00;96527.16;5094168;28;20024;-64
2023/12/26 13:52:05;;;;;;;7.13;5.95;;;;;;;10.60;100.00;96421.88;5092896;28;20089;-65
2023/12/26 13:54:31;;;;;;;8.95;6.80;;;;;;;10.26;100.00;96429.81;5092300;28;20103;-65
2023/12/26 13:56:56;;;;;;;8.07;7.32;;;;;;;10.11;100.00;96438.94;5088489;28;20440;-65
2023/12/26 13:59:22;;;;;;;7.00;6.35;;;;;;;9.66;100.00;96435.34;5092300;28;20154;-65